KPRC/PRC METAR and TAF weather

Enter ICAO airport designator
Station Type Date Time Source
KPRC METAR 2020/03/31 20:53 UTC NOAA

KPRC 312053Z 00000KT 10SM CLR 17/M06 A3009 RMK AO2 SLP147 T01721061 58029


Station Type Date Time Source
KPRC Decoded METAR 2020/03/31 20:53 UTC NOAA

PRESCOTT LOVE FIELD, AZ, United States (KPRC) 34-39N 112-25W 1524M
Mar 31, 2020 - 04:53 PM EDT / 2020.03.31 2053 UTC
Wind: Calm:0
Visibility: 10 mile(s):0
Sky conditions: clear
Temperature: 63.0 F (17.2 C)
Dew Point: 21.0 F (-6.1 C)
Relative Humidity: 19%
Pressure (altimeter): 30.09 in. Hg (1018 hPa)
Pressure tendency: 0.09 inches (2.9 hPa) lower than three hours ago
ob: KPRC 312053Z 00000KT 10SM CLR 17/M06 A3009 RMK AO2 SLP147 T01721061 58029
cycle: 21

Station Type Date Time Source
KPRC TAF 2020/03/31 18:33 UTC NOAA

TAF KPRC 311730Z 3118/0118 VRB06KT P6SM BKN200

Example: see airport list